createdAt,value
2019-05-17T00:02:10.400Z,11.07
2019-05-17T00:07:16.763Z,11.07
2019-05-17T00:12:22.303Z,11.13
2019-05-17T00:17:27.562Z,11.15
2019-05-17T00:27:50.359Z,11.26
2019-05-17T00:32:56.941Z,11.28
2019-05-17T00:38:02.426Z,11.33
2019-05-17T00:43:07.822Z,11.41
2019-05-17T00:48:13.125Z,11.45
2019-05-17T00:53:18.423Z,11.47
2019-05-17T00:58:26.197Z,11.45
2019-05-17T01:03:30.805Z,11.47
2019-05-17T01:08:37.228Z,11.46
2019-05-17T01:13:42.661Z,11.50
2019-05-17T01:18:48.087Z,11.53
2019-05-17T01:23:53.578Z,11.52
2019-05-17T01:28:58.975Z,11.44
2019-05-17T01:34:04.462Z,11.37
2019-05-17T01:39:17.722Z,11.27
2019-05-17T01:44:16.954Z,11.15
2019-05-17T01:49:22.327Z,11.04
2019-05-17T01:54:27.779Z,10.94
2019-05-17T01:59:33.182Z,10.79
2019-05-17T02:04:38.976Z,10.69
2019-05-17T02:09:44.302Z,10.61
2019-05-17T02:14:49.580Z,10.51
2019-05-17T02:20:08.958Z,10.30
2019-05-17T02:25:16.696Z,10.47
2019-05-17T02:30:23.349Z,10.55
2019-05-17T02:35:28.891Z,10.59
2019-05-17T02:40:34.464Z,10.55
2019-05-17T02:45:43.281Z,10.13
2019-05-17T02:50:48.290Z,10.04
2019-05-17T02:55:54.111Z,9.98
2019-05-17T03:00:59.540Z,10.04
2019-05-17T03:06:05.274Z,10.07
2019-05-17T03:11:13.186Z,10.06
2019-05-17T03:16:17.630Z,10.06
2019-05-17T03:21:23.057Z,10.08
2019-05-17T03:26:28.460Z,9.81
2019-05-17T03:31:41.773Z,9.70
2019-05-17T03:36:46.144Z,9.62
2019-05-17T03:41:47.883Z,9.52
2019-05-17T03:46:53.414Z,9.53
2019-05-17T03:51:58.783Z,9.53
2019-05-17T03:57:03.961Z,9.36
2019-05-17T04:02:12.291Z,9.37
2019-05-17T04:07:16.236Z,9.20
2019-05-17T04:12:23.085Z,9.42
2019-05-17T04:17:28.485Z,9.45
2019-05-17T04:22:33.935Z,9.46
2019-05-17T04:27:43.157Z,9.44
2019-05-17T04:32:46.368Z,9.33
2019-05-17T04:37:53.114Z,9.21
2019-05-17T04:42:58.592Z,9.23
2019-05-17T04:48:04.395Z,9.12
2019-05-17T04:53:12.907Z,9.11
2019-05-17T04:58:16.744Z,9.38
2019-05-17T05:03:23.044Z,9.68
2019-05-17T05:08:28.667Z,10.02
2019-05-17T05:13:34.040Z,10.42
2019-05-17T05:18:41.941Z,10.77
2019-05-17T05:23:46.308Z,11.15
2019-05-17T05:28:52.920Z,11.37
2019-05-17T05:33:58.442Z,11.62
2019-05-17T05:39:04.794Z,11.81
2019-05-17T05:44:12.263Z,11.94
2019-05-17T05:49:17.170Z,11.61
2019-05-17T05:54:22.680Z,11.85
2019-05-17T05:59:28.061Z,11.99
2019-05-17T06:04:33.463Z,12.13
2019-05-17T06:09:38.998Z,12.28
2019-05-17T06:14:44.454Z,12.37
2019-05-17T06:19:51.735Z,12.65
2019-05-17T06:24:56.781Z,12.57
2019-05-17T06:30:02.232Z,12.79
2019-05-17T06:35:07.589Z,12.84
2019-05-17T06:40:14.053Z,12.71
2019-05-17T06:45:21.930Z,12.64
2019-05-17T06:50:26.599Z,12.76
2019-05-17T06:55:31.856Z,12.81
2019-05-17T07:00:37.173Z,12.84
2019-05-17T07:05:44.603Z,13.24
2019-05-17T07:10:50.312Z,13.84
2019-05-17T07:15:55.600Z,14.08
2019-05-17T07:21:03.492Z,14.38
2019-05-17T07:26:11.401Z,14.54
2019-05-17T07:31:15.266Z,14.85
2019-05-17T07:36:20.756Z,15.11
2019-05-17T07:41:26.291Z,15.25
2019-05-17T07:46:31.903Z,15.23
2019-05-17T07:51:39.450Z,15.56
2019-05-17T07:56:44.290Z,15.80
2019-05-17T08:01:50.341Z,15.91
2019-05-17T08:06:56.204Z,15.76
2019-05-17T08:12:01.539Z,15.67
2019-05-17T08:17:06.942Z,15.51
2019-05-17T08:22:12.307Z,15.41
2019-05-17T08:27:19.928Z,15.20
2019-05-17T08:32:25.873Z,14.90
2019-05-17T08:37:31.366Z,14.74
2019-05-17T08:42:36.596Z,14.49
2019-05-17T08:47:41.974Z,14.58
2019-05-17T08:52:49.341Z,14.85
2019-05-17T08:57:54.351Z,15.35
2019-05-17T09:03:00.155Z,15.69
2019-05-17T09:08:05.702Z,16.18
2019-05-17T09:13:14.566Z,16.18
2019-05-17T09:18:20.396Z,16.03
2019-05-17T09:23:25.543Z,16.23
2019-05-17T09:28:34.486Z,16.46
2019-05-17T09:33:40.578Z,16.58
2019-05-17T09:38:46.232Z,16.91
2019-05-17T09:43:51.605Z,18.03
2019-05-17T09:48:57.127Z,19.01
2019-05-17T09:54:02.416Z,18.80
2019-05-17T09:59:09.910Z,18.02
2019-05-17T10:04:15.151Z,17.64
2019-05-17T10:09:20.746Z,17.92
2019-05-17T10:14:30.703Z,17.37
2019-05-17T10:19:33.296Z,17.07
2019-05-17T10:24:42.118Z,16.50
2019-05-17T10:29:50.363Z,16.68
2019-05-17T10:34:55.747Z,17.07
2019-05-17T10:40:01.344Z,17.08
2019-05-17T10:45:07.661Z,17.36
2019-05-17T10:50:13.245Z,17.47
2019-05-17T10:55:20.002Z,17.03
2019-05-17T11:00:30.132Z,16.68
2019-05-17T11:05:34.546Z,16.25
2019-05-17T11:10:40.046Z,16.44
2019-05-17T11:15:45.359Z,16.75
2019-05-17T11:20:50.806Z,17.16
2019-05-17T11:26:06.410Z,17.75
2019-05-17T11:31:11.971Z,17.45
2019-05-17T11:36:17.621Z,16.86
2019-05-17T11:41:23.149Z,16.54
2019-05-17T11:46:36.122Z,16.59
2019-05-17T11:51:35.556Z,16.77
2019-05-17T11:56:41.151Z,16.93
2019-05-17T12:01:46.628Z,16.67
2019-05-17T12:07:03.079Z,16.73
2019-05-17T12:12:08.643Z,16.68
2019-05-17T12:17:14.360Z,16.70
2019-05-17T12:22:19.719Z,16.61
2019-05-17T12:27:25.243Z,16.20
2019-05-17T12:32:30.647Z,16.17
2019-05-17T12:37:36.031Z,16.52
2019-05-17T12:42:41.424Z,16.87
2019-05-17T12:47:46.897Z,16.95
2019-05-17T12:52:52.578Z,17.15
2019-05-17T12:57:58.191Z,16.96
2019-05-17T13:03:03.712Z,17.00
2019-05-17T13:08:09.306Z,17.04
2019-05-17T13:13:14.695Z,17.08
2019-05-17T13:18:20.325Z,17.08
2019-05-17T13:23:25.855Z,17.17
2019-05-17T13:28:31.083Z,17.20
2019-05-17T13:33:36.492Z,18.15
2019-05-17T13:38:41.835Z,17.74
2019-05-17T13:43:47.257Z,17.28
2019-05-17T13:48:52.752Z,16.93
2019-05-17T13:53:57.962Z,17.01
2019-05-17T13:59:03.441Z,17.88
2019-05-17T14:04:08.982Z,17.92
2019-05-17T14:09:14.459Z,17.67
2019-05-17T14:14:20.271Z,18.16
2019-05-17T14:19:26.590Z,17.77
2019-05-17T14:24:32.793Z,17.41
2019-05-17T14:29:38.394Z,16.84
2019-05-17T14:34:44.095Z,16.18
2019-05-17T14:39:49.335Z,15.66
2019-05-17T14:44:54.783Z,15.55
2019-05-17T14:50:00.149Z,15.52
2019-05-17T14:55:05.755Z,15.53
2019-05-17T15:00:11.875Z,15.79
2019-05-17T15:05:17.119Z,15.82
2019-05-17T15:10:22.506Z,15.63
2019-05-17T15:15:28.054Z,15.64
2019-05-17T15:20:33.426Z,15.12
2019-05-17T15:25:38.817Z,15.05
2019-05-17T15:30:44.162Z,14.85
2019-05-17T15:35:49.677Z,14.23
2019-05-17T15:40:54.972Z,13.73
2019-05-17T15:46:00.365Z,13.48
2019-05-17T15:51:06.029Z,13.33
2019-05-17T15:56:11.376Z,13.06
2019-05-17T16:01:16.722Z,12.68
2019-05-17T16:06:22.146Z,12.68
2019-05-17T16:11:27.671Z,12.67
2019-05-17T16:16:33.112Z,12.61
2019-05-17T16:21:38.647Z,12.56
2019-05-17T16:26:43.992Z,12.46
2019-05-17T16:31:49.382Z,12.34
2019-05-17T16:36:54.738Z,12.35
2019-05-17T16:42:00.184Z,12.37
2019-05-17T16:47:05.767Z,12.41
2019-05-17T16:52:11.302Z,12.34
2019-05-17T16:57:16.795Z,12.21
2019-05-17T17:02:22.474Z,11.93
2019-05-17T17:07:27.940Z,11.88
2019-05-17T17:12:33.510Z,11.75
2019-05-17T17:17:38.866Z,11.75
2019-05-17T17:22:44.316Z,11.64
2019-05-17T17:27:49.657Z,11.56
2019-05-17T17:32:54.934Z,11.56
2019-05-17T17:38:00.655Z,11.56
2019-05-17T17:43:06.058Z,11.70
2019-05-17T17:48:11.403Z,11.77
2019-05-17T17:53:16.773Z,11.70
2019-05-17T17:58:22.336Z,11.67
2019-05-17T18:03:27.638Z,11.64
2019-05-17T18:08:34.751Z,11.69
2019-05-17T18:13:40.273Z,11.87
2019-05-17T18:18:45.601Z,11.96
2019-05-17T18:23:50.906Z,11.75
2019-05-17T18:28:56.316Z,11.61
2019-05-17T18:34:01.703Z,11.52
2019-05-17T18:39:08.239Z,11.58
2019-05-17T18:44:27.224Z,11.62
2019-05-17T18:49:21.013Z,11.63
2019-05-17T18:54:27.162Z,11.62
2019-05-17T18:59:32.755Z,11.57
2019-05-17T19:04:38.319Z,11.57
2019-05-17T19:09:44.035Z,11.54
2019-05-17T19:14:49.544Z,11.53
2019-05-17T19:19:55.123Z,11.53
2019-05-17T19:25:01.704Z,11.55
2019-05-17T19:30:07.844Z,11.64
2019-05-17T19:35:13.751Z,11.58
2019-05-17T19:40:19.234Z,11.59
2019-05-17T19:45:24.767Z,11.67
2019-05-17T19:50:30.252Z,11.66
2019-05-17T19:55:35.743Z,11.56
2019-05-17T20:00:41.247Z,11.57
2019-05-17T20:05:47.032Z,11.62
2019-05-17T20:10:53.051Z,11.57
2019-05-17T20:15:58.506Z,11.67
2019-05-17T20:21:04.092Z,11.71
2019-05-17T20:26:09.531Z,11.70
2019-05-17T20:31:15.211Z,11.62
2019-05-17T20:36:20.759Z,11.61
2019-05-17T20:41:27.251Z,11.70
2019-05-17T20:46:32.684Z,11.70
2019-05-17T20:51:38.091Z,11.76
2019-05-17T20:56:43.450Z,11.86
2019-05-17T21:01:48.779Z,11.68
2019-05-17T21:06:54.309Z,11.55
2019-05-17T21:11:59.784Z,11.68
2019-05-17T21:17:05.464Z,11.78
2019-05-17T21:22:10.951Z,11.76
2019-05-17T21:27:16.378Z,11.51
2019-05-17T21:32:21.819Z,11.33
2019-05-17T21:37:27.205Z,11.38
2019-05-17T21:42:32.691Z,11.51
2019-05-17T21:47:38.526Z,11.58
2019-05-17T21:52:44.010Z,11.69
2019-05-17T21:57:49.403Z,11.56
2019-05-17T22:02:54.912Z,11.57
2019-05-17T22:08:00.352Z,11.59
2019-05-17T22:13:06.212Z,11.56
2019-05-17T22:18:11.683Z,11.67
2019-05-17T22:23:17.092Z,11.71
2019-05-17T22:28:22.762Z,11.57
2019-05-17T22:33:28.448Z,11.46
2019-05-17T22:38:34.513Z,11.53
2019-05-17T22:43:39.931Z,11.69
2019-05-17T22:48:45.619Z,11.75
2019-05-17T22:53:51.218Z,11.83
2019-05-17T22:58:56.706Z,11.86
2019-05-17T23:04:02.210Z,11.89
2019-05-17T23:09:08.396Z,11.86
2019-05-17T23:14:13.851Z,11.89
2019-05-17T23:19:19.526Z,11.87
2019-05-17T23:24:24.943Z,11.86
2019-05-17T23:29:30.959Z,11.87
2019-05-17T23:34:36.425Z,11.89
2019-05-17T23:39:41.784Z,12.00
2019-05-17T23:44:47.170Z,11.92
2019-05-17T23:49:52.598Z,11.92
2019-05-17T23:54:58.099Z,11.76
